Time;durP1;ratioP1;P1;durP2;ratioP2;P2;SDS_P1;SDS_P2;PMS_P1;PMS_P2;Temp;Humidity;BMP_temperature;BMP_pressure;BME280_temperature;BME280_humidity;BME280_pressure;Samples;Min_cycle;Max_cycle;Signal;HPM_P1;HPM_P2
2023/11/25 00:01:09;;;;;;;0.47;0.20;;;3.60;91.10;;;;;;5091801;28;20047;-75
2023/11/25 00:03:35;;;;;;;0.20;0.20;;;3.60;91.20;;;;;;5109551;28;20039;-76
2023/11/25 00:06:01;;;;;;;1.20;0.30;;;3.50;91.20;;;;;;5107938;28;20393;-76
2023/11/25 00:08:26;;;;;;;0.43;0.20;;;3.50;91.20;;;;;;5117944;28;20401;-76
2023/11/25 00:10:52;;;;;;;1.05;0.20;;;3.50;91.20;;;;;;5108341;28;20039;-75
2023/11/25 00:13:20;;;;;;;0.95;0.30;;;3.50;91.20;;;;;;5128380;28;20047;-76
2023/11/25 00:15:45;;;;;;;1.15;0.28;;;3.50;91.20;;;;;;5128189;28;20073;-75
2023/11/25 00:18:11;;;;;;;1.42;0.35;;;3.50;91.20;;;;;;5076633;28;20404;-75
2023/11/25 00:20:37;;;;;;;1.67;0.30;;;3.50;91.20;;;;;;5111369;28;20088;-75
2023/11/25 00:23:03;;;;;;;0.30;0.30;;;3.50;91.20;;;;;;5092530;28;20047;-75
2023/11/25 00:25:29;;;;;;;1.38;0.40;;;3.50;91.30;;;;;;5127910;28;20481;-76
2023/11/25 00:27:55;;;;;;;0.60;0.28;;;3.50;91.20;;;;;;5110887;28;20044;-76
2023/11/25 00:30:21;;;;;;;0.30;0.30;;;3.60;91.20;;;;;;5109141;28;20043;-75
2023/11/25 00:32:46;;;;;;;0.68;0.20;;;3.60;91.10;;;;;;5108418;28;20054;-76
2023/11/25 00:35:12;;;;;;;1.17;0.35;;;3.60;91.10;;;;;;5089937;28;20101;-76
2023/11/25 00:37:40;;;;;;;1.52;0.40;;;3.60;91.10;;;;;;5105384;28;20035;-76
2023/11/25 00:40:10;;;;;;;1.33;0.30;;;3.70;91.10;;;;;;5110476;28;20072;-75
2023/11/25 00:42:39;;;;;;;0.47;0.30;;;3.60;91.10;;;;;;5125237;28;20035;-75
2023/11/25 00:45:07;;;;;;;0.50;0.20;;;3.60;91.10;;;;;;5091859;28;20406;-75
2023/11/25 00:47:34;;;;;;;1.20;0.55;;;3.60;91.10;;;;;;5108766;28;20035;-75
2023/11/25 00:50:00;;;;;;;2.65;0.60;;;3.70;91.10;;;;;;5108885;28;20066;-76
2023/11/25 00:52:27;;;;;;;1.48;0.20;;;3.70;91.10;;;;;;5108425;28;20067;-75
2023/11/25 00:54:53;;;;;;;1.17;0.25;;;3.60;91.10;;;;;;5089379;28;20043;-75
2023/11/25 00:57:19;;;;;;;0.82;0.32;;;3.70;91.10;;;;;;5092083;28;20127;-75
2023/11/25 00:59:44;;;;;;;0.30;0.22;;;3.60;91.10;;;;;;5092633;28;20054;-76
2023/11/25 01:02:10;;;;;;;1.85;0.35;;;3.60;91.10;;;;;;5124994;28;20039;-75
2023/11/25 01:04:39;;;;;;;2.08;0.40;;;3.60;91.10;;;;;;5075295;28;20040;-76
2023/11/25 01:07:05;;;;;;;2.10;0.40;;;3.60;91.20;;;;;;5106763;28;20035;-76
2023/11/25 01:09:31;;;;;;;1.35;0.40;;;3.60;91.20;;;;;;5106965;28;20042;-76
2023/11/25 01:11:57;;;;;;;0.40;0.20;;;3.60;91.20;;;;;;5106652;28;20062;-76
2023/11/25 01:14:23;;;;;;;1.23;0.30;;;3.60;91.30;;;;;;5123385;28;20493;-76
2023/11/25 01:16:50;;;;;;;1.58;0.38;;;3.60;91.30;;;;;;5106531;28;20482;-76
2023/11/25 01:19:16;;;;;;;1.27;0.30;;;3.60;91.20;;;;;;5108187;28;21921;-76
2023/11/25 01:21:41;;;;;;;2.20;0.30;;;3.70;91.20;;;;;;5090621;28;20067;-76
2023/11/25 01:24:10;;;;;;;0.80;0.30;;;3.70;91.20;;;;;;5125674;28;20142;-76
2023/11/25 01:26:36;;;;;;;0.57;0.32;;;3.70;91.10;;;;;;5125053;28;20073;-76
2023/11/25 01:29:02;;;;;;;0.98;0.40;;;3.70;91.10;;;;;;5106399;28;20081;-76
2023/11/25 01:31:28;;;;;;;0.65;0.30;;;3.70;91.10;;;;;;5089157;28;20046;-77
2023/11/25 01:33:55;;;;;;;0.47;0.22;;;3.80;91.10;;;;;;5108247;28;20051;-75
2023/11/25 01:36:21;;;;;;;0.50;0.30;;;3.70;91.10;;;;;;5090269;28;20063;-76
2023/11/25 01:38:48;;;;;;;0.55;0.35;;;3.80;91.20;;;;;;5124545;28;20039;-76
2023/11/25 01:41:13;;;;;;;1.55;0.52;;;3.70;91.10;;;;;;5090651;28;20043;-76
2023/11/25 01:43:39;;;;;;;1.67;0.50;;;3.70;91.10;;;;;;5105809;28;20052;-76
2023/11/25 01:46:06;;;;;;;0.65;0.30;;;3.70;91.20;;;;;;5124383;28;20047;-76
2023/11/25 01:48:34;;;;;;;0.38;0.30;;;3.80;91.20;;;;;;5122278;28;20054;-76
2023/11/25 01:51:02;;;;;;;0.82;0.30;;;3.80;91.20;;;;;;5103692;28;20074;-76
2023/11/25 01:53:29;;;;;;;0.30;0.30;;;3.80;91.20;;;;;;5086242;28;20048;-76
2023/11/25 01:55:56;;;;;;;2.60;0.52;;;3.80;91.20;;;;;;5107012;28;20043;-76
2023/11/25 01:58:22;;;;;;;1.02;0.43;;;3.80;91.20;;;;;;5121959;28;20031;-76
2023/11/25 02:00:49;;;;;;;1.45;0.38;;;3.80;91.20;;;;;;5104760;28;20496;-76
2023/11/25 02:03:16;;;;;;;0.20;0.20;;;3.80;91.20;;;;;;5085617;28;20055;-76
2023/11/25 02:05:44;;;;;;;0.52;0.22;;;3.80;91.20;;;;;;5086083;28;20051;-76
2023/11/25 02:08:10;;;;;;;1.70;0.40;;;3.80;91.20;;;;;;5071565;28;20112;-75
2023/11/25 02:10:36;;;;;;;1.38;0.35;;;3.80;91.20;;;;;;5118381;28;20035;-76
2023/11/25 02:13:03;;;;;;;0.35;0.20;;;3.80;91.20;;;;;;5120057;28;20035;-77
2023/11/25 02:15:30;;;;;;;1.50;0.32;;;3.90;91.30;;;;;;5068821;28;20028;-76
2023/11/25 02:17:56;;;;;;;1.92;0.57;;;3.90;91.30;;;;;;5100455;28;20108;-76
2023/11/25 02:20:35;;;;;;;2.28;0.45;;;3.90;91.20;;;;;;5087912;28;20061;-76
2023/11/25 02:23:02;;;;;;;1.40;0.40;;;3.90;91.20;;;;;;5091396;28;20038;-76
2023/11/25 02:25:28;;;;;;;1.45;0.38;;;4.00;91.10;;;;;;5107461;28;20039;-76
2023/11/25 02:27:55;;;;;;;0.60;0.32;;;4.00;91.10;;;;;;5088332;28;20113;-76
2023/11/25 02:30:23;;;;;;;2.10;0.60;;;4.00;91.00;;;;;;5122391;28;20548;-76
2023/11/25 02:32:49;;;;;;;0.73;0.40;;;4.00;91.00;;;;;;5107880;28;20043;-76
2023/11/25 02:35:16;;;;;;;2.80;0.77;;;4.10;91.10;;;;;;5074361;28;20071;-75
2023/11/25 02:37:44;;;;;;;1.30;0.60;;;4.10;91.00;;;;;;5088196;28;20031;-76
2023/11/25 02:40:16;;;;;;;2.03;0.60;;;4.10;91.00;;;;;;5125401;28;20534;-76
2023/11/25 02:42:46;;;;;;;1.27;0.43;;;4.10;91.00;;;;;;5104776;28;20043;-76
2023/11/25 02:45:18;;;;;;;0.97;0.20;;;4.20;91.00;;;;;;5090487;28;20038;-76
2023/11/25 02:47:44;;;;;;;2.38;0.50;;;4.20;91.00;;;;;;5089153;28;20103;-76
2023/11/25 02:50:10;;;;;;;0.90;0.30;;;4.20;91.00;;;;;;5104844;28;20065;-77
2023/11/25 02:52:37;;;;;;;2.08;0.40;;;4.10;91.00;;;;;;5102843;28;20508;-77
2023/11/25 02:55:03;;;;;;;0.55;0.20;;;4.10;91.00;;;;;;5085309;28;20059;-76
2023/11/25 02:57:28;;;;;;;1.00;0.20;;;4.00;91.10;;;;;;5120929;28;20118;-77
2023/11/25 02:59:55;;;;;;;1.17;0.40;;;4.00;91.20;;;;;;5101703;28;20075;-76
2023/11/25 03:02:21;;;;;;;0.45;0.20;;;4.00;91.20;;;;;;5101579;28;20066;-76
2023/11/25 03:04:47;;;;;;;0.35;0.22;;;4.00;91.30;;;;;;5102283;28;20497;-76
2023/11/25 03:07:13;;;;;;;0.20;0.20;;;3.90;91.30;;;;;;5102588;28;20040;-76
2023/11/25 03:09:39;;;;;;;0.35;0.28;;;3.90;91.30;;;;;;5120571;28;20039;-77
2023/11/25 03:12:05;;;;;;;0.20;0.20;;;3.80;91.40;;;;;;5101906;28;20050;-76
2023/11/25 03:14:31;;;;;;;0.22;0.20;;;3.80;91.40;;;;;;5067566;28;20489;-76
2023/11/25 03:16:57;;;;;;;0.68;0.20;;;3.70;91.40;;;;;;5101509;28;20050;-76
2023/11/25 03:19:23;;;;;;;0.50;0.28;;;3.60;91.50;;;;;;5119384;28;20044;-76
2023/11/25 03:21:50;;;;;;;0.63;0.20;;;3.60;91.50;;;;;;5119518;28;20039;-76
2023/11/25 03:24:18;;;;;;;0.40;0.20;;;3.60;91.60;;;;;;5067437;28;20032;-76
2023/11/25 03:26:44;;;;;;;0.77;0.20;;;3.60;91.60;;;;;;5084405;28;20054;-77
2023/11/25 03:29:09;;;;;;;1.17;0.28;;;3.50;91.70;;;;;;5099583;28;20048;-76
2023/11/25 03:31:41;;;;;;;0.90;0.30;;;3.50;91.70;;;;;;5100125;28;20093;-76
2023/11/25 03:34:09;;;;;;;0.20;0.20;;;3.40;91.70;;;;;;5098820;28;20086;-76
2023/11/25 03:36:35;;;;;;;1.15;0.40;;;3.50;91.70;;;;;;5083078;28;20448;-76
2023/11/25 03:39:01;;;;;;;1.23;0.28;;;3.40;91.70;;;;;;5099298;28;20044;-76
2023/11/25 03:41:28;;;;;;;0.98;0.40;;;3.40;91.80;;;;;;5098653;28;20034;-77
2023/11/25 03:43:54;;;;;;;0.10;0.10;;;3.30;91.80;;;;;;5097736;28;20032;-76
2023/11/25 03:46:19;;;;;;;1.00;0.22;;;3.30;91.90;;;;;;5081274;28;20438;-76
2023/11/25 03:48:45;;;;;;;0.32;0.25;;;3.30;91.80;;;;;;5081784;28;20040;-76
2023/11/25 03:51:11;;;;;;;1.55;0.22;;;3.30;91.80;;;;;;5097311;28;20528;-77
2023/11/25 03:53:37;;;;;;;0.35;0.17;;;3.30;91.80;;;;;;5081186;28;20516;-76
2023/11/25 03:56:02;;;;;;;0.22;0.20;;;3.30;91.80;;;;;;5096511;28;20155;-76
2023/11/25 03:58:28;;;;;;;0.60;0.20;;;3.20;91.80;;;;;;5097036;28;20039;-76
2023/11/25 04:00:55;;;;;;;0.10;0.10;;;3.20;91.80;;;;;;5096770;28;20092;-76
2023/11/25 04:03:21;;;;;;;0.17;0.10;;;3.20;91.90;;;;;;5080787;28;20100;-76
2023/11/25 04:05:46;;;;;;;1.13;0.22;;;3.20;91.90;;;;;;5096470;28;20339;-77
2023/11/25 04:08:12;;;;;;;0.45;0.20;;;3.10;91.90;;;;;;5115099;28;20040;-76
2023/11/25 04:10:38;;;;;;;0.20;0.20;;;3.10;92.00;;;;;;5115921;28;20453;-76
2023/11/25 04:13:04;;;;;;;2.90;0.40;;;3.00;92.00;;;;;;5097346;28;20062;-77
2023/11/25 04:15:29;;;;;;;0.45;0.30;;;3.00;92.00;;;;;;5096880;28;20044;-77
2023/11/25 04:17:55;;;;;;;1.15;0.30;;;3.00;92.00;;;;;;5096635;28;20039;-76
2023/11/25 04:20:24;;;;;;;0.50;0.20;;;3.00;92.00;;;;;;5117561;28;20032;-76
2023/11/25 04:22:50;;;;;;;1.67;0.40;;;3.10;92.00;;;;;;5086205;28;20126;-76
2023/11/25 04:25:16;;;;;;;1.30;0.20;;;3.10;91.90;;;;;;5099445;28;20044;-76
2023/11/25 04:27:44;;;;;;;2.83;0.55;;;3.20;91.90;;;;;;5103923;28;20043;-77
2023/11/25 04:30:11;;;;;;;0.75;0.30;;;3.30;91.90;;;;;;5085822;28;20030;-76
2023/11/25 04:32:39;;;;;;;3.45;0.47;;;3.50;91.90;;;;;;5119881;28;20043;-76
2023/11/25 04:35:06;;;;;;;1.48;0.40;;;3.60;91.70;;;;;;5067640;28;20051;-76
2023/11/25 04:37:33;;;;;;;2.10;0.40;;;3.80;91.60;;;;;;5083774;28;20035;-76
2023/11/25 04:40:00;;;;;;;1.50;0.40;;;3.70;91.40;;;;;;5101677;28;20046;-76
2023/11/25 04:42:27;;;;;;;1.30;0.20;;;3.80;91.40;;;;;;5121582;28;20036;-76
2023/11/25 04:44:52;;;;;;;0.50;0.30;;;4.00;91.40;;;;;;5083328;28;20039;-76
2023/11/25 04:47:18;;;;;;;0.30;0.30;;;3.80;91.30;;;;;;5086433;28;20465;-76
2023/11/25 04:49:44;;;;;;;1.95;0.35;;;3.90;91.30;;;;;;5102162;28;20095;-76
2023/11/25 04:52:10;;;;;;;0.75;0.30;;;3.90;91.30;;;;;;5100950;28;20110;-76
2023/11/25 04:54:35;;;;;;;1.10;0.20;;;3.90;91.30;;;;;;5101577;28;20040;-76
2023/11/25 04:57:01;;;;;;;1.52;0.40;;;4.00;91.30;;;;;;5107939;28;20036;-75
2023/11/25 04:59:29;;;;;;;2.78;0.40;;;4.00;91.20;;;;;;5092985;28;20035;-76
2023/11/25 05:01:55;;;;;;;1.58;0.40;;;4.00;91.20;;;;;;5108644;28;20058;-76
2023/11/25 05:04:21;;;;;;;0.80;0.40;;;4.20;91.20;;;;;;5091934;28;20456;-75
2023/11/25 05:06:47;;;;;;;0.85;0.40;;;4.20;91.20;;;;;;5109996;28;20110;-75
2023/11/25 05:09:17;;;;;;;0.38;0.30;;;4.10;91.20;;;;;;5092204;28;20048;-76
2023/11/25 05:11:42;;;;;;;1.65;0.30;;;4.10;91.10;;;;;;5108870;28;20044;-76
2023/11/25 05:14:08;;;;;;;1.15;0.30;;;4.10;91.10;;;;;;5108026;28;20040;-78
2023/11/25 05:16:34;;;;;;;0.93;0.32;;;4.10;91.10;;;;;;5091678;28;20058;-76
2023/11/25 05:18:59;;;;;;;1.17;0.38;;;4.10;91.10;;;;;;5089930;28;20035;-76
2023/11/25 05:21:25;;;;;;;0.60;0.30;;;4.10;91.20;;;;;;5106910;28;20059;-76
2023/11/25 05:23:51;;;;;;;0.15;0.15;;;4.00;91.20;;;;;;5108733;28;20071;-76
2023/11/25 05:26:17;;;;;;;1.90;0.30;;;4.00;91.20;;;;;;5128429;28;20101;-76
2023/11/25 05:28:43;;;;;;;0.10;0.10;;;4.00;91.30;;;;;;5109774;28;20047;-76
2023/11/25 05:31:10;;;;;;;0.30;0.10;;;3.90;91.30;;;;;;5126448;28;20062;-76
2023/11/25 05:33:35;;;;;;;0.20;0.20;;;3.90;91.30;;;;;;5106577;28;20148;-76
2023/11/25 05:36:02;;;;;;;0.47;0.25;;;4.00;91.40;;;;;;5087634;28;20043;-76
2023/11/25 05:38:28;;;;;;;1.35;0.17;;;3.80;91.40;;;;;;5088215;28;20042;-76
2023/11/25 05:40:54;;;;;;;0.60;0.30;;;3.80;91.50;;;;;;5088967;28;20047;-76
2023/11/25 05:43:21;;;;;;;0.20;0.10;;;3.70;91.50;;;;;;5104872;28;20063;-76
2023/11/25 05:45:47;;;;;;;0.65;0.10;;;3.70;91.60;;;;;;5091167;28;20051;-77
2023/11/25 05:48:12;;;;;;;0.40;0.20;;;3.60;91.60;;;;;;5127018;28;20051;-76
2023/11/25 05:50:39;;;;;;;0.20;0.20;;;3.60;91.70;;;;;;5110229;28;20035;-76
2023/11/25 05:53:06;;;;;;;1.58;0.30;;;3.60;91.70;;;;;;5111105;28;20572;-76
2023/11/25 05:55:31;;;;;;;2.55;0.20;;;3.70;91.70;;;;;;5128739;28;20051;-76
2023/11/25 05:57:57;;;;;;;0.52;0.10;;;3.60;91.70;;;;;;5113284;28;20039;-76
2023/11/25 06:00:23;;;;;;;1.42;0.28;;;3.70;91.70;;;;;;5130499;28;20085;-76
2023/11/25 06:02:49;;;;;;;0.10;0.10;;;3.70;91.70;;;;;;5113620;28;20114;-76
2023/11/25 06:05:15;;;;;;;1.13;0.35;;;3.70;91.60;;;;;;5112817;28;20115;-76
2023/11/25 06:07:40;;;;;;;0.45;0.30;;;3.70;91.60;;;;;;5114025;28;20069;-77
2023/11/25 06:10:09;;;;;;;0.20;0.20;;;3.70;91.60;;;;;;5091883;28;20048;-76
2023/11/25 06:12:37;;;;;;;1.45;0.20;;;3.70;91.60;;;;;;5092184;28;20046;-78
2023/11/25 06:15:04;;;;;;;1.00;0.10;;;3.80;91.60;;;;;;5074341;28;20050;-77
2023/11/25 06:17:30;;;;;;;0.35;0.20;;;3.80;91.60;;;;;;5108149;28;20394;-76
2023/11/25 06:19:56;;;;;;;1.27;0.13;;;3.70;91.60;;;;;;5088079;28;20046;-76
2023/11/25 06:22:21;;;;;;;0.17;0.10;;;3.60;91.60;;;;;;5088238;28;20035;-77
2023/11/25 06:24:47;;;;;;;0.70;0.10;;;3.70;91.70;;;;;;5108211;28;20419;-76
2023/11/25 06:27:13;;;;;;;0.82;0.22;;;3.60;91.70;;;;;;5089357;28;20035;-76
2023/11/25 06:29:39;;;;;;;0.73;0.20;;;3.60;91.70;;;;;;5111123;28;20051;-76
2023/11/25 06:32:06;;;;;;;0.30;0.15;;;3.60;91.70;;;;;;5123656;28;20108;-76
2023/11/25 06:34:32;;;;;;;1.13;0.30;;;3.60;91.70;;;;;;5075592;28;20047;-77
2023/11/25 06:36:58;;;;;;;0.20;0.20;;;3.70;91.80;;;;;;5119764;28;20086;-77
2023/11/25 06:39:26;;;;;;;1.10;0.20;;;3.60;91.70;;;;;;5080971;28;20036;-76
2023/11/25 06:41:53;;;;;;;0.77;0.35;;;3.60;91.70;;;;;;5110281;28;20085;-76
2023/11/25 06:44:19;;;;;;;0.22;0.20;;;3.60;91.70;;;;;;5102865;28;20036;-77
2023/11/25 06:46:46;;;;;;;0.25;0.25;;;3.60;91.70;;;;;;5108193;28;20063;-76
2023/11/25 06:49:13;;;;;;;0.10;0.10;;;3.70;91.70;;;;;;5093404;28;20039;-76
2023/11/25 06:51:41;;;;;;;0.10;0.10;;;3.70;91.70;;;;;;5114011;28;20035;-76
2023/11/25 06:54:08;;;;;;;0.28;0.10;;;3.70;92.00;;;;;;5070973;28;20549;-77
2023/11/25 06:56:35;;;;;;;0.93;0.35;;;3.70;91.70;;;;;;5102159;28;20051;-76
2023/11/25 06:59:01;;;;;;;1.92;0.32;;;3.70;91.70;;;;;;5106680;28;20534;-76
2023/11/25 07:01:27;;;;;;;0.10;0.10;;;3.90;91.70;;;;;;5088942;28;20039;-76
2023/11/25 07:03:53;;;;;;;0.77;0.20;;;3.90;91.60;;;;;;5105928;28;20093;-77
2023/11/25 07:06:18;;;;;;;0.90;0.28;;;4.00;91.60;;;;;;5124389;28;20043;-76
2023/11/25 07:08:45;;;;;;;0.65;0.32;;;4.00;91.60;;;;;;5109655;28;20039;-76
2023/11/25 07:11:13;;;;;;;0.85;0.10;;;4.00;91.50;;;;;;5090059;28;20160;-75
2023/11/25 07:13:39;;;;;;;0.80;0.25;;;4.10;91.50;;;;;;5074540;28;20485;-77
2023/11/25 07:16:07;;;;;;;0.88;0.17;;;4.20;91.50;;;;;;5125565;28;20066;-76
2023/11/25 07:18:34;;;;;;;2.10;0.30;;;4.40;91.40;;;;;;5092035;28;20036;-76
2023/11/25 07:21:00;;;;;;;0.30;0.20;;;4.30;91.30;;;;;;5109393;28;20107;-76
2023/11/25 07:23:27;;;;;;;0.68;0.30;;;4.40;91.30;;;;;;5122259;28;20047;-76
2023/11/25 07:25:55;;;;;;;0.10;0.10;;;4.30;91.30;;;;;;5087571;28;20059;-76
2023/11/25 07:28:21;;;;;;;0.98;0.30;;;4.30;91.30;;;;;;5085954;28;20038;-76
2023/11/25 07:30:49;;;;;;;1.23;0.10;;;4.40;91.30;;;;;;5107800;28;20066;-76
2023/11/25 07:33:15;;;;;;;0.20;0.20;;;4.50;91.30;;;;;;5126084;28;20061;-76
2023/11/25 07:35:40;;;;;;;1.00;0.40;;;4.40;91.30;;;;;;5127462;28;20039;-77
2023/11/25 07:38:06;;;;;;;0.60;0.20;;;4.40;91.30;;;;;;5107863;28;20127;-75
2023/11/25 07:40:33;;;;;;;0.98;0.22;;;4.40;91.30;;;;;;5090771;28;20119;-75
2023/11/25 07:43:00;;;;;;;0.60;0.25;;;4.50;91.30;;;;;;5091405;28;20050;-75
2023/11/25 07:45:25;;;;;;;0.25;0.20;;;4.40;91.30;;;;;;5091603;28;20039;-76
2023/11/25 07:47:52;;;;;;;0.10;0.10;;;4.40;91.30;;;;;;5107369;28;20101;-76
2023/11/25 07:50:18;;;;;;;1.40;0.20;;;4.40;91.40;;;;;;5090645;28;20075;-76
2023/11/25 07:52:45;;;;;;;0.73;0.30;;;4.40;91.40;;;;;;5101325;28;20039;-76
2023/11/25 07:55:11;;;;;;;1.23;0.20;;;4.30;91.40;;;;;;5101221;28;20047;-77
2023/11/25 07:57:38;;;;;;;0.45;0.20;;;4.30;91.50;;;;;;5103432;28;20047;-76
2023/11/25 08:00:06;;;;;;;0.65;0.28;;;4.40;91.50;;;;;;5122828;28;20051;-76
2023/11/25 08:02:33;;;;;;;0.68;0.20;;;4.30;91.50;;;;;;5089528;28;20040;-75
2023/11/25 08:04:58;;;;;;;1.65;0.20;;;4.40;91.50;;;;;;5105565;28;20443;-76
2023/11/25 08:07:24;;;;;;;0.93;0.20;;;4.40;91.50;;;;;;5104090;28;20052;-75
2023/11/25 08:09:50;;;;;;;1.55;0.20;;;4.40;91.50;;;;;;5071904;28;20128;-75
2023/11/25 08:12:16;;;;;;;0.45;0.20;;;4.40;91.50;;;;;;5092444;28;20497;-77
2023/11/25 08:14:42;;;;;;;0.47;0.20;;;4.40;91.50;;;;;;5116895;28;20047;-77
2023/11/25 08:17:08;;;;;;;1.67;0.20;;;4.50;91.50;;;;;;5098673;28;20150;-78
2023/11/25 08:19:34;;;;;;;0.70;0.25;;;4.50;91.50;;;;;;5115547;28;20055;-76
2023/11/25 08:22:00;;;;;;;0.70;0.20;;;4.60;91.50;;;;;;5114461;28;20043;-76
2023/11/25 08:24:26;;;;;;;0.90;0.40;;;4.70;91.40;;;;;;5113677;28;20059;-75
2023/11/25 08:26:52;;;;;;;0.50;0.30;;;4.70;91.30;;;;;;5113745;28;20051;-76
2023/11/25 08:29:18;;;;;;;0.32;0.20;;;4.80;91.30;;;;;;5128837;28;20512;-76
2023/11/25 08:31:44;;;;;;;0.65;0.22;;;4.80;91.20;;;;;;5096650;28;20036;-75
2023/11/25 08:34:11;;;;;;;0.45;0.20;;;4.80;91.20;;;;;;5095014;28;20031;-76
2023/11/25 08:36:52;;;;;;;0.10;0.10;;;4.80;91.20;;;;;;5097924;28;20064;-76
2023/11/25 08:39:20;;;;;;;0.20;0.20;;;4.80;91.30;;;;;;5099355;28;20084;-76
2023/11/25 08:41:47;;;;;;;0.55;0.20;;;4.80;91.30;;;;;;5093646;28;20040;-75
2023/11/25 08:44:13;;;;;;;2.40;0.30;;;4.80;91.30;;;;;;5115277;28;20035;-76
2023/11/25 08:46:42;;;;;;;0.90;0.10;;;4.80;91.30;;;;;;5096518;28;20058;-76
2023/11/25 08:49:11;;;;;;;0.43;0.13;;;4.90;91.40;;;;;;5092159;28;20047;-76
2023/11/25 08:51:41;;;;;;;2.33;0.30;;;5.00;91.30;;;;;;5126785;28;20036;-76
2023/11/25 08:54:08;;;;;;;0.47;0.20;;;4.90;91.30;;;;;;5096575;28;20126;-75
2023/11/25 08:56:34;;;;;;;0.55;0.10;;;4.90;91.30;;;;;;5090398;28;20046;-76
2023/11/25 08:59:01;;;;;;;0.10;0.10;;;5.00;91.30;;;;;;5126577;28;20035;-76
2023/11/25 09:01:31;;;;;;;0.20;0.20;;;5.00;91.30;;;;;;5110050;28;20122;-75
2023/11/25 09:03:58;;;;;;;0.52;0.22;;;5.10;91.30;;;;;;5090758;28;20395;-76
2023/11/25 09:06:24;;;;;;;0.20;0.17;;;5.10;91.20;;;;;;5107536;28;20040;-75
2023/11/25 09:08:50;;;;;;;0.20;0.20;;;5.20;91.20;;;;;;5070889;28;20073;-76
2023/11/25 09:11:15;;;;;;;0.10;0.10;;;5.20;91.20;;;;;;5083572;28;20504;-76
2023/11/25 09:13:41;;;;;;;0.10;0.10;;;5.20;91.20;;;;;;5119638;28;20043;-76
2023/11/25 09:16:08;;;;;;;0.20;0.20;;;5.30;91.20;;;;;;5084591;28;20059;-76
2023/11/25 09:18:33;;;;;;;0.47;0.20;;;5.40;91.20;;;;;;5117959;28;20040;-76
2023/11/25 09:20:59;;;;;;;0.17;0.17;;;5.30;91.20;;;;;;5119479;28;20059;-76
2023/11/25 09:23:26;;;;;;;0.20;0.20;;;5.40;91.20;;;;;;5120471;28;20100;-76
2023/11/25 09:25:51;;;;;;;0.20;0.20;;;5.40;91.20;;;;;;5101416;28;20432;-77
2023/11/25 09:28:17;;;;;;;1.92;0.25;;;5.60;91.20;;;;;;5100332;28;20048;-76
2023/11/25 09:30:44;;;;;;;0.30;0.20;;;5.70;91.10;;;;;;5094197;28;20054;-76
2023/11/25 09:33:10;;;;;;;0.65;0.20;;;5.80;91.00;;;;;;5107756;28;20150;-76
2023/11/25 09:35:36;;;;;;;0.40;0.10;;;5.90;90.90;;;;;;5109948;28;20044;-75
2023/11/25 09:38:02;;;;;;;0.30;0.20;;;6.00;90.80;;;;;;5128999;28;20042;-75
2023/11/25 09:40:28;;;;;;;0.75;0.20;;;5.90;90.80;;;;;;5108485;28;20054;-75
2023/11/25 09:42:54;;;;;;;0.38;0.30;;;6.00;90.80;;;;;;5109294;28;20054;-75
2023/11/25 09:45:28;;;;;;;0.13;0.10;;;6.00;90.80;;;;;;5126130;28;20055;-76
2023/11/25 09:47:54;;;;;;;0.20;0.20;;;6.00;90.80;;;;;;5123656;28;20492;-77
2023/11/25 09:50:21;;;;;;;0.35;0.20;;;5.90;90.80;;;;;;5088515;28;20035;-76
2023/11/25 09:52:50;;;;;;;0.20;0.20;;;5.90;90.80;;;;;;5103783;28;20051;-76
2023/11/25 09:55:18;;;;;;;1.00;0.35;;;6.00;90.90;;;;;;5104160;28;20073;-76
2023/11/25 09:57:49;;;;;;;0.55;0.20;;;5.90;90.90;;;;;;5073219;28;20040;-76
2023/11/25 10:00:17;;;;;;;0.20;0.20;;;5.90;91.00;;;;;;5120610;28;20035;-76
2023/11/25 10:02:45;;;;;;;0.10;0.10;;;5.90;91.00;;;;;;5121241;28;20036;-76
2023/11/25 10:05:11;;;;;;;0.50;0.20;;;5.90;91.00;;;;;;5102813;28;20039;-76
2023/11/25 10:07:37;;;;;;;0.65;0.30;;;5.90;91.00;;;;;;5099077;28;20039;-75
2023/11/25 10:10:04;;;;;;;0.95;0.40;;;5.90;91.00;;;;;;5097922;28;20052;-75
2023/11/25 10:12:31;;;;;;;0.63;0.20;;;5.90;91.00;;;;;;5097938;28;20043;-75
2023/11/25 10:14:59;;;;;;;0.88;0.20;;;6.00;91.10;;;;;;5080586;28;20160;-75
2023/11/25 10:17:25;;;;;;;1.50;0.20;;;6.10;91.10;;;;;;5080437;28;20035;-75
2023/11/25 10:20:09;;;;;;;1.40;0.22;;;6.20;91.10;;;;;;5080139;28;20036;-75
2023/11/25 10:22:58;;;;;;;0.52;0.20;;;6.30;91.00;;;;;;5098173;28;20061;-76
2023/11/25 10:25:27;;;;;;;0.52;0.30;;;6.40;90.80;;;;;;5114405;28;20118;-75
2023/11/25 10:27:54;;;;;;;0.95;0.32;;;6.40;90.80;;;;;;5097039;28;20401;-75
2023/11/25 10:30:21;;;;;;;1.75;0.20;;;6.40;90.70;;;;;;5080542;28;20044;-75
2023/11/25 10:32:49;;;;;;;1.65;0.30;;;6.40;90.70;;;;;;5080279;28;20039;-75
2023/11/25 10:35:15;;;;;;;0.82;0.22;;;6.30;90.80;;;;;;5098453;28;20081;-76
2023/11/25 10:37:41;;;;;;;1.45;0.52;;;6.40;90.90;;;;;;5101714;28;20136;-75
2023/11/25 10:40:09;;;;;;;2.72;0.50;;;6.30;90.90;;;;;;5104116;28;20043;-75
2023/11/25 10:42:36;;;;;;;3.25;0.40;;;6.40;91.00;;;;;;5120030;28;20039;-76
2023/11/25 10:45:04;;;;;;;1.45;0.30;;;6.40;91.00;;;;;;5122626;28;20036;-75
2023/11/25 10:47:31;;;;;;;1.75;0.40;;;6.40;91.00;;;;;;5091259;28;20043;-75
2023/11/25 10:50:03;;;;;;;0.98;0.40;;;6.50;91.00;;;;;;5088578;28;20070;-76
2023/11/25 10:52:32;;;;;;;0.40;0.30;;;6.60;91.00;;;;;;5109164;28;20040;-77
2023/11/25 10:54:59;;;;;;;3.30;0.55;;;6.70;90.90;;;;;;5121800;28;20039;-77
2023/11/25 10:57:27;;;;;;;2.38;0.55;;;6.70;90.80;;;;;;5120673;28;20054;-76
2023/11/25 10:59:59;;;;;;;0.93;0.40;;;6.90;90.90;;;;;;5114640;28;20075;-76
2023/11/25 11:02:30;;;;;;;0.43;0.22;;;7.00;90.80;;;;;;5079736;28;20036;-76
2023/11/25 11:05:01;;;;;;;2.33;0.70;;;7.20;90.70;;;;;;5096850;28;20047;-76
2023/11/25 11:07:27;;;;;;;1.60;0.50;;;7.30;90.50;;;;;;5097953;28;20043;-76
2023/11/25 11:09:57;;;;;;;1.58;0.60;;;7.40;90.30;;;;;;5097107;28;20493;-76
2023/11/25 11:12:36;;;;;;;1.45;0.40;;;7.40;90.30;;;;;;5096302;28;20040;-76
2023/11/25 11:15:09;;;;;;;1.20;0.30;;;7.30;90.40;;;;;;5115335;28;20057;-76
2023/11/25 11:18:06;;;;;;;0.75;0.32;;;7.30;90.50;;;;;;5081205;28;20057;-76
2023/11/25 11:20:37;;;;;;;2.30;0.55;;;7.20;90.60;;;;;;5096455;28;20119;-75
2023/11/25 11:23:04;;;;;;;1.30;0.30;;;7.30;90.60;;;;;;5080320;28;20032;-76
2023/11/25 11:25:38;;;;;;;3.05;0.40;;;7.30;90.60;;;;;;5096325;28;20047;-76
2023/11/25 11:28:22;;;;;;;0.93;0.38;;;7.20;90.60;;;;;;5105861;28;20051;-75
2023/11/25 11:31:28;;;;;;;0.52;0.30;;;7.30;90.70;;;;;;5126308;28;20061;-76
2023/11/25 11:33:54;;;;;;;1.98;0.43;;;7.30;90.70;;;;;;5122700;28;20032;-75
2023/11/25 11:36:21;;;;;;;1.20;0.50;;;7.40;90.80;;;;;;5095202;28;20054;-76
2023/11/25 11:38:46;;;;;;;2.17;0.40;;;7.30;90.70;;;;;;5132605;28;20031;-76
2023/11/25 11:41:29;;;;;;;2.35;0.57;;;7.40;90.60;;;;;;5113041;28;20053;-76
2023/11/25 11:44:04;;;;;;;1.80;0.35;;;7.50;90.60;;;;;;5111125;28;20046;-76
2023/11/25 11:46:31;;;;;;;1.15;0.25;;;7.50;90.50;;;;;;5130751;28;20061;-76
2023/11/25 11:48:59;;;;;;;0.95;0.52;;;7.60;90.50;;;;;;5078627;28;20069;-76
2023/11/25 11:51:25;;;;;;;2.33;0.47;;;7.60;90.50;;;;;;5093752;28;20043;-76
2023/11/25 11:54:23;;;;;;;2.58;0.70;;;7.70;90.50;;;;;;5092923;28;20095;-76
2023/11/25 11:57:07;;;;;;;1.60;0.40;;;7.70;90.50;;;;;;5109021;28;20036;-76
2023/11/25 12:00:00;;;;;;;1.67;0.40;;;7.80;90.50;;;;;;5112895;28;20032;-76
2023/11/25 12:02:29;;;;;;;1.75;0.43;;;7.90;90.40;;;;;;5127524;28;20103;-77
2023/11/25 12:04:57;;;;;;;1.88;0.30;;;7.90;90.40;;;;;;5128976;28;20058;-78
2023/11/25 12:07:24;;;;;;;1.42;0.40;;;8.10;90.40;;;;;;5094831;28;20043;-76
2023/11/25 12:09:50;;;;;;;1.30;0.40;;;8.10;90.20;;;;;;5093520;28;20043;-76
2023/11/25 12:12:16;;;;;;;1.63;0.40;;;8.30;90.20;;;;;;5121804;28;20382;-76
2023/11/25 12:14:41;;;;;;;1.55;0.50;;;8.40;90.10;;;;;;5107174;28;20051;-76
2023/11/25 12:17:08;;;;;;;2.65;0.52;;;8.50;89.90;;;;;;5125567;28;20039;-76
2023/11/25 12:19:34;;;;;;;2.13;0.40;;;8.50;89.50;;;;;;5090891;28;20035;-76
2023/11/25 12:22:00;;;;;;;1.98;0.60;;;8.50;89.60;;;;;;5091009;28;20057;-76
2023/11/25 12:24:26;;;;;;;0.98;0.50;;;8.40;89.60;;;;;;5089703;28;20103;-75
2023/11/25 12:26:56;;;;;;;2.28;0.60;;;8.40;89.60;;;;;;5126748;28;20051;-75
2023/11/25 12:29:23;;;;;;;4.77;1.00;;;8.40;89.80;;;;;;5107771;28;20082;-76
2023/11/25 12:31:49;;;;;;;1.65;0.60;;;8.40;90.00;;;;;;5088567;28;20044;-76
2023/11/25 12:34:15;;;;;;;3.45;0.80;;;8.50;90.00;;;;;;5101956;28;20071;-76
2023/11/25 12:36:41;;;;;;;1.30;0.55;;;8.60;89.90;;;;;;5105987;28;20044;-76
2023/11/25 12:39:12;;;;;;;1.77;0.50;;;8.60;89.50;;;;;;5090039;28;22576;-76
2023/11/25 12:41:39;;;;;;;2.70;0.50;;;8.60;89.50;;;;;;5126429;28;20659;-75
2023/11/25 12:44:09;;;;;;;3.20;0.77;;;8.50;89.60;;;;;;5105614;28;20067;-76
2023/11/25 12:46:37;;;;;;;1.27;0.50;;;8.50;89.80;;;;;;5123727;28;20043;-76
2023/11/25 12:49:23;;;;;;;1.27;0.47;;;8.60;89.80;;;;;;5087502;28;20044;-76
2023/11/25 12:51:50;;;;;;;1.25;0.50;;;8.70;89.70;;;;;;5125772;28;20035;-77
2023/11/25 12:54:16;;;;;;;2.10;0.80;;;8.80;89.30;;;;;;5105225;28;20064;-76
2023/11/25 12:56:43;;;;;;;2.60;0.40;;;8.70;89.10;;;;;;5104914;28;20047;-76
2023/11/25 12:59:09;;;;;;;2.40;0.63;;;8.60;89.20;;;;;;5127286;28;20070;-76